createdAt,value
2022-09-09T00:01:21.857Z,19.10
2022-09-09T00:04:01.276Z,19.00
2022-09-09T00:06:50.021Z,19.50
2022-09-09T00:09:30.506Z,18.90
2022-09-09T00:12:16.068Z,18.60
2022-09-09T00:14:57.403Z,18.70
2022-09-09T00:17:40.967Z,18.10
2022-09-09T00:20:32.028Z,18.40
2022-09-09T00:23:20.802Z,18.10
2022-09-09T00:26:12.236Z,18.70
2022-09-09T00:29:09.526Z,19.00
2022-09-09T00:34:33.728Z,17.90
2022-09-09T00:37:01.145Z,19.10
2022-09-09T00:39:49.044Z,18.10
2022-09-09T00:42:35.247Z,18.80
2022-09-09T00:45:55.261Z,18.60
2022-09-09T00:48:33.690Z,18.50
2022-09-09T00:51:35.899Z,19.00
2022-09-09T00:54:23.999Z,19.90
2022-09-09T00:57:32.408Z,19.10
2022-09-09T01:00:23.789Z,18.20
2022-09-09T01:03:43.537Z,18.80
2022-09-09T01:06:32.426Z,18.70
2022-09-09T01:09:29.298Z,18.70
2022-09-09T01:12:07.589Z,18.90
2022-09-09T01:14:37.883Z,19.30
2022-09-09T01:17:23.585Z,18.80
2022-09-09T01:20:11.591Z,17.90
2022-09-09T01:23:01.105Z,18.20
2022-09-09T01:26:15.760Z,18.20
2022-09-09T01:28:49.938Z,17.00
2022-09-09T01:31:24.836Z,17.80
2022-09-09T01:36:30.323Z,17.60
2022-09-09T01:38:57.899Z,16.40
2022-09-09T01:43:55.911Z,18.70
2022-09-09T01:46:24.277Z,18.70
2022-09-09T01:48:55.902Z,18.20
2022-09-09T01:51:25.146Z,18.00
2022-09-09T01:53:52.486Z,18.70
2022-09-09T01:56:38.184Z,18.50
2022-09-09T01:59:22.932Z,17.30
2022-09-09T02:02:23.737Z,16.30
2022-09-09T02:04:57.862Z,17.40
2022-09-09T02:07:48.831Z,16.80
2022-09-09T02:10:32.017Z,18.00
2022-09-09T02:13:15.503Z,19.30
2022-09-09T02:16:04.648Z,16.90
2022-09-09T02:19:00.900Z,17.50
2022-09-09T02:21:36.076Z,16.30
2022-09-09T02:24:11.386Z,17.10
2022-09-09T02:26:43.720Z,18.30
2022-09-09T02:29:20.543Z,17.40
2022-09-09T02:31:50.962Z,17.80
2022-09-09T02:34:22.134Z,17.00
2022-09-09T02:36:51.941Z,17.10
2022-09-09T02:41:48.540Z,17.80
2022-09-09T02:44:19.364Z,17.10
2022-09-09T02:47:11.316Z,17.90
2022-09-09T02:50:03.322Z,17.60
2022-09-09T02:52:56.730Z,16.80
2022-09-09T02:55:46.718Z,17.00
2022-09-09T02:58:19.500Z,16.20
2022-09-09T03:00:53.736Z,16.90
2022-09-09T03:03:23.201Z,16.90
2022-09-09T03:05:50.931Z,16.20
2022-09-09T03:10:46.064Z,15.90
2022-09-09T03:18:11.656Z,17.80
2022-09-09T03:23:06.409Z,16.80
2022-09-09T03:25:35.151Z,16.90
2022-09-09T03:35:26.635Z,16.20
2022-09-09T03:47:47.227Z,17.10
2022-09-09T03:50:14.572Z,17.00
2022-09-09T03:52:43.958Z,16.20
2022-09-09T04:00:09.063Z,16.20
2022-09-09T04:02:36.618Z,16.50
2022-09-09T04:05:05.278Z,16.50
2022-09-09T04:07:33.465Z,16.20
2022-09-09T04:10:01.014Z,17.10
2022-09-09T04:12:28.350Z,16.30
2022-09-09T04:17:23.081Z,15.20
2022-09-09T04:27:16.206Z,16.40
2022-09-09T04:29:43.311Z,15.00
2022-09-09T04:32:10.488Z,17.60
2022-09-09T04:34:38.434Z,16.60
2022-09-09T04:37:05.699Z,15.10
2022-09-09T04:39:33.027Z,16.60
2022-09-09T04:42:00.362Z,15.70
2022-09-09T04:44:27.789Z,17.10
2022-09-09T04:49:23.937Z,16.30
2022-09-09T04:51:51.090Z,17.00
2022-09-09T04:54:18.967Z,15.50
2022-09-09T04:56:46.061Z,16.10
2022-09-09T04:59:13.140Z,17.40
2022-09-09T05:04:10.023Z,17.90
2022-09-09T05:11:37.813Z,16.40
2022-09-09T05:14:06.084Z,16.70
2022-09-09T05:16:33.441Z,17.40
2022-09-09T05:19:00.532Z,17.40
2022-09-09T05:28:52.752Z,17.60
2022-09-09T05:31:20.791Z,18.60
2022-09-09T05:33:50.563Z,18.10
2022-09-09T05:36:21.346Z,21.00
2022-09-09T05:38:49.399Z,19.10
2022-09-09T05:43:45.811Z,18.90
2022-09-09T05:46:25.950Z,19.40
2022-09-09T05:48:55.092Z,21.10
2022-09-09T05:51:25.723Z,21.70
2022-09-09T05:53:53.413Z,23.40
2022-09-09T05:56:26.870Z,23.70
2022-09-09T05:58:55.329Z,24.90
2022-09-09T06:01:28.227Z,26.80
2022-09-09T06:06:28.247Z,25.30
2022-09-09T06:08:59.352Z,24.70
2022-09-09T06:11:32.427Z,24.50
2022-09-09T06:14:00.227Z,23.70
2022-09-09T06:16:31.075Z,26.00
2022-09-09T06:18:59.025Z,26.80
2022-09-09T06:21:33.472Z,26.80
2022-09-09T06:24:01.564Z,26.10
2022-09-09T06:26:42.418Z,26.90
2022-09-09T06:31:38.984Z,25.90
2022-09-09T06:34:08.854Z,26.10
2022-09-09T06:36:39.575Z,25.70
2022-09-09T06:39:13.634Z,26.10
2022-09-09T06:44:12.915Z,28.10
2022-09-09T06:46:40.829Z,30.70
2022-09-09T06:49:10.715Z,28.30
2022-09-09T06:51:44.051Z,28.20
2022-09-09T06:54:13.350Z,28.40
2022-09-09T06:56:44.092Z,28.00
2022-09-09T06:59:13.298Z,27.70
2022-09-09T07:01:44.898Z,28.10
2022-09-09T07:04:13.910Z,29.70
2022-09-09T07:06:46.887Z,27.60
2022-09-09T07:09:17.097Z,29.30
2022-09-09T07:11:47.990Z,30.00
2022-09-09T07:16:45.193Z,30.60
2022-09-09T07:19:15.137Z,31.60
2022-09-09T07:21:43.139Z,33.10
2022-09-09T07:24:11.806Z,33.30
2022-09-09T07:26:40.395Z,33.10
2022-09-09T07:29:08.335Z,32.80
2022-09-09T07:31:41.119Z,33.00
2022-09-09T07:34:08.694Z,33.50
2022-09-09T07:36:41.002Z,33.20
2022-09-09T07:39:14.173Z,33.60
2022-09-09T07:42:05.421Z,34.00
2022-09-09T07:44:35.883Z,34.30
2022-09-09T07:47:04.504Z,34.10
2022-09-09T07:49:33.007Z,36.10
2022-09-09T07:52:00.437Z,35.20
2022-09-09T07:54:27.758Z,36.00
2022-09-09T08:01:55.744Z,36.70
2022-09-09T08:04:26.289Z,37.10
2022-09-09T08:09:26.235Z,34.40
2022-09-09T08:14:21.580Z,35.40
2022-09-09T08:16:51.025Z,36.20
2022-09-09T08:19:18.580Z,34.50
2022-09-09T08:21:46.599Z,36.20
2022-09-09T08:24:17.389Z,36.90
2022-09-09T08:26:48.383Z,33.50
2022-09-09T08:29:16.138Z,33.90
2022-09-09T08:31:53.293Z,35.80
2022-09-09T08:36:50.958Z,36.40
2022-09-09T08:39:23.313Z,37.70
2022-09-09T08:42:26.425Z,37.60
2022-09-09T08:45:20.920Z,37.70
2022-09-09T08:48:35.681Z,34.70
2022-09-09T08:51:04.592Z,34.70
2022-09-09T08:53:44.809Z,36.00
2022-09-09T08:56:19.370Z,36.20
2022-09-09T08:58:51.464Z,37.10
2022-09-09T09:01:51.780Z,37.20
2022-09-09T09:05:00.446Z,34.60
2022-09-09T09:07:32.868Z,37.30
2022-09-09T09:10:49.741Z,37.30
2022-09-09T09:13:31.253Z,36.10
2022-09-09T09:16:15.946Z,35.90
2022-09-09T09:21:34.656Z,36.80
2022-09-09T09:24:03.514Z,36.40
2022-09-09T09:26:36.774Z,34.30
2022-09-09T09:29:16.168Z,34.50
2022-09-09T09:31:57.919Z,36.90
2022-09-09T09:36:59.768Z,37.40
2022-09-09T09:42:23.080Z,36.20
2022-09-09T09:44:50.996Z,34.80
2022-09-09T09:47:24.711Z,34.30
2022-09-09T09:50:01.174Z,36.10
2022-09-09T09:52:33.341Z,36.30
2022-09-09T09:55:07.793Z,35.70
2022-09-09T10:00:18.613Z,37.20
2022-09-09T10:02:48.180Z,35.50
2022-09-09T10:05:27.296Z,34.00
2022-09-09T10:08:20.780Z,35.50
2022-09-09T10:13:31.237Z,37.40
2022-09-09T10:16:18.656Z,33.50
2022-09-09T10:19:02.230Z,35.30
2022-09-09T10:21:51.058Z,36.20
2022-09-09T10:24:51.904Z,33.70
2022-09-09T10:27:43.967Z,34.30
2022-09-09T10:30:25.310Z,34.80
2022-09-09T10:33:17.041Z,35.90
2022-09-09T10:35:53.132Z,34.20
2022-09-09T10:38:46.155Z,34.00
2022-09-09T10:41:47.000Z,32.80
2022-09-09T10:44:36.957Z,33.70
2022-09-09T10:47:29.541Z,32.30
2022-09-09T10:51:13.284Z,35.70
2022-09-09T10:54:06.271Z,32.70
2022-09-09T10:56:37.138Z,34.40
2022-09-09T10:59:36.645Z,33.10
2022-09-09T11:02:29.390Z,34.00
2022-09-09T11:05:01.332Z,33.90
2022-09-09T11:07:57.365Z,33.80
2022-09-09T11:11:08.571Z,32.80
2022-09-09T11:13:57.505Z,34.10
2022-09-09T11:16:43.117Z,33.90
2022-09-09T11:19:36.520Z,35.70
2022-09-09T11:22:39.778Z,35.80
2022-09-09T11:27:41.792Z,32.80
2022-09-09T11:30:44.245Z,32.80
2022-09-09T11:33:46.005Z,32.10
2022-09-09T11:36:50.572Z,32.90
2022-09-09T11:39:40.737Z,32.20
2022-09-09T11:42:14.021Z,32.10
2022-09-09T11:44:42.867Z,32.60
2022-09-09T11:47:32.977Z,32.40
2022-09-09T11:50:16.693Z,32.90
2022-09-09T11:52:47.557Z,31.50
2022-09-09T11:55:34.072Z,31.60
2022-09-09T11:58:18.247Z,31.70
2022-09-09T12:00:49.339Z,31.70
2022-09-09T12:03:47.199Z,32.20
2022-09-09T12:06:29.547Z,32.50
2022-09-09T12:09:09.095Z,31.60
2022-09-09T12:14:03.898Z,31.80
2022-09-09T12:16:38.405Z,31.60
2022-09-09T12:19:26.448Z,31.50
2022-09-09T12:22:10.896Z,30.90
2022-09-09T12:24:53.445Z,31.90
2022-09-09T12:27:32.165Z,32.50
2022-09-09T12:30:17.171Z,31.00
2022-09-09T12:32:45.857Z,30.80
2022-09-09T12:35:23.039Z,31.60
2022-09-09T12:38:27.476Z,32.20
2022-09-09T12:40:59.935Z,31.70
2022-09-09T12:43:28.931Z,28.90
2022-09-09T12:46:08.338Z,29.30
2022-09-09T12:48:45.294Z,29.80
2022-09-09T12:51:32.699Z,29.90
2022-09-09T12:54:01.241Z,28.80
2022-09-09T12:56:34.067Z,29.90
2022-09-09T13:01:33.601Z,31.40
2022-09-09T13:04:01.607Z,30.70
2022-09-09T13:06:34.312Z,30.60
2022-09-09T13:09:03.815Z,31.90
2022-09-09T13:11:48.385Z,30.90
2022-09-09T13:14:31.505Z,31.50
2022-09-09T13:17:02.827Z,31.80
2022-09-09T13:19:39.944Z,31.60
2022-09-09T13:22:30.321Z,32.10
2022-09-09T13:25:26.730Z,29.80
2022-09-09T13:28:03.739Z,30.40
2022-09-09T13:30:38.038Z,30.20
2022-09-09T13:33:07.245Z,29.80
2022-09-09T13:38:10.738Z,29.50
2022-09-09T13:40:39.433Z,29.40
2022-09-09T13:46:22.547Z,29.00
2022-09-09T13:49:23.128Z,28.80
2022-09-09T13:52:15.471Z,28.80
2022-09-09T13:54:43.563Z,28.30
2022-09-09T13:57:19.366Z,28.70
2022-09-09T14:00:04.016Z,29.10
2022-09-09T14:05:00.261Z,28.20
2022-09-09T14:07:28.565Z,28.60
2022-09-09T14:12:23.627Z,28.30
2022-09-09T14:29:37.192Z,28.20
2022-09-09T14:32:07.384Z,29.20
2022-09-09T14:34:36.637Z,29.00
2022-09-09T14:37:03.889Z,28.40
2022-09-09T14:39:31.117Z,28.60
2022-09-09T14:44:26.934Z,28.20
2022-09-09T14:46:55.259Z,29.30
2022-09-09T14:49:22.547Z,27.90
2022-09-09T14:51:49.680Z,28.90
2022-09-09T14:56:45.431Z,28.10
2022-09-09T15:09:08.533Z,28.00
2022-09-09T15:11:39.187Z,28.10
2022-09-09T15:14:08.796Z,27.70
2022-09-09T15:19:04.544Z,27.70
2022-09-09T15:21:35.597Z,27.50
2022-09-09T15:26:31.319Z,28.90
2022-09-09T15:31:31.613Z,27.30
2022-09-09T15:34:02.265Z,27.10
2022-09-09T15:36:45.338Z,26.00
2022-09-09T15:39:16.927Z,26.80
2022-09-09T15:41:49.138Z,26.40
2022-09-09T15:44:17.125Z,26.60
2022-09-09T15:46:54.724Z,25.90
2022-09-09T15:49:26.454Z,26.50
2022-09-09T15:51:59.360Z,25.60
2022-09-09T15:54:27.902Z,26.40
2022-09-09T15:56:59.194Z,25.10
2022-09-09T15:59:32.206Z,26.80
2022-09-09T16:04:30.680Z,26.30
2022-09-09T16:07:02.353Z,26.30
2022-09-09T16:09:30.863Z,25.70
2022-09-09T16:12:02.098Z,25.30
2022-09-09T16:19:27.224Z,24.90
2022-09-09T16:26:52.288Z,25.50
2022-09-09T16:29:20.462Z,25.50
2022-09-09T16:34:19.358Z,25.30
2022-09-09T16:36:49.385Z,25.30
2022-09-09T16:39:19.811Z,25.20
2022-09-09T16:41:49.957Z,25.10
2022-09-09T16:44:20.286Z,25.00
2022-09-09T16:46:56.645Z,25.10
2022-09-09T16:49:28.628Z,24.90
2022-09-09T16:56:55.534Z,24.60
2022-09-09T16:59:24.530Z,25.00
2022-09-09T17:04:27.786Z,24.40
2022-09-09T17:06:58.343Z,24.40
2022-09-09T17:09:30.358Z,24.40
2022-09-09T17:14:25.622Z,25.30
2022-09-09T17:24:39.514Z,23.10
2022-09-09T17:27:07.109Z,25.00
2022-09-09T17:29:37.010Z,23.10
2022-09-09T17:32:06.476Z,23.70
2022-09-09T17:34:34.620Z,25.30
2022-09-09T17:44:25.578Z,23.20
2022-09-09T17:49:20.444Z,23.50
2022-09-09T17:54:19.729Z,22.80
2022-09-09T17:56:48.848Z,23.00
2022-09-09T17:59:18.505Z,22.90
2022-09-09T18:01:51.017Z,22.90
2022-09-09T18:06:53.060Z,22.80
2022-09-09T18:09:26.745Z,22.50
2022-09-09T18:11:57.623Z,22.70
2022-09-09T18:14:30.546Z,22.60
2022-09-09T18:17:00.845Z,22.70
2022-09-09T18:19:30.906Z,22.70
2022-09-09T18:22:01.748Z,23.70
2022-09-09T18:31:55.869Z,22.60
2022-09-09T18:34:25.935Z,22.40
2022-09-09T18:36:56.241Z,22.50
2022-09-09T18:39:28.236Z,22.90
2022-09-09T18:42:00.703Z,22.40
2022-09-09T18:44:34.698Z,22.40
2022-09-09T18:47:03.761Z,22.20
2022-09-09T18:49:31.260Z,22.80
2022-09-09T18:54:31.465Z,22.40
2022-09-09T18:59:29.374Z,22.10
2022-09-09T19:06:58.364Z,22.00
2022-09-09T19:09:32.590Z,22.10
2022-09-09T19:12:01.408Z,21.90
2022-09-09T19:14:29.842Z,21.90
2022-09-09T19:19:34.734Z,22.00
2022-09-09T19:22:03.363Z,22.10
2022-09-09T19:24:33.470Z,22.40
2022-09-09T19:27:07.024Z,22.40
2022-09-09T19:29:37.256Z,21.70
2022-09-09T19:34:53.240Z,22.30
2022-09-09T19:37:20.877Z,21.60
2022-09-09T19:39:50.406Z,22.20
2022-09-09T19:42:23.013Z,20.70
2022-09-09T19:47:19.631Z,21.50
2022-09-09T19:54:45.203Z,22.40
2022-09-09T19:57:13.357Z,21.00
2022-09-09T19:59:41.246Z,20.20
2022-09-09T20:02:13.079Z,21.50
2022-09-09T20:09:36.513Z,22.10
2022-09-09T20:12:06.976Z,22.20
2022-09-09T20:14:38.710Z,19.80
2022-09-09T20:24:29.714Z,20.10
2022-09-09T20:26:56.763Z,20.70
2022-09-09T20:34:27.364Z,20.30
2022-09-09T20:39:22.877Z,22.20
2022-09-09T20:44:24.717Z,20.40
2022-09-09T20:47:02.843Z,20.30
2022-09-09T20:49:30.388Z,20.30
2022-09-09T20:54:28.068Z,20.60
2022-09-09T20:56:56.283Z,20.90
2022-09-09T20:59:26.343Z,20.80
2022-09-09T21:01:54.591Z,20.40
2022-09-09T21:04:22.786Z,19.90
2022-09-09T21:06:51.323Z,20.40
2022-09-09T21:09:20.728Z,20.30
2022-09-09T21:19:10.687Z,20.40
2022-09-09T21:26:33.593Z,20.50
2022-09-09T21:34:00.304Z,19.80
2022-09-09T21:38:59.274Z,19.80
2022-09-09T21:41:26.836Z,20.20
2022-09-09T21:43:54.778Z,19.80
2022-09-09T21:46:23.576Z,19.80
2022-09-09T21:48:51.012Z,20.30
2022-09-09T21:56:19.245Z,19.80
2022-09-09T21:58:47.404Z,20.00
2022-09-09T22:01:18.173Z,19.80
2022-09-09T22:03:46.493Z,19.80
2022-09-09T22:06:17.403Z,20.10
2022-09-09T22:08:46.803Z,19.60
2022-09-09T22:11:22.317Z,19.70
2022-09-09T22:13:50.704Z,19.50
2022-09-09T22:16:21.243Z,19.50
2022-09-09T22:19:00.535Z,20.20
2022-09-09T22:21:30.418Z,19.40
2022-09-09T22:24:02.354Z,19.60
2022-09-09T22:26:34.516Z,20.10
2022-09-09T22:29:02.131Z,19.70
2022-09-09T22:31:29.536Z,19.10
2022-09-09T22:38:54.710Z,20.00
2022-09-09T22:41:22.100Z,20.30
2022-09-09T22:46:18.886Z,19.80
2022-09-09T22:48:46.063Z,20.30
2022-09-09T22:51:15.705Z,19.30
2022-09-09T22:53:45.250Z,19.80
2022-09-09T22:56:19.189Z,19.30
2022-09-09T22:58:48.115Z,19.00
2022-09-09T23:01:19.407Z,19.30
2022-09-09T23:06:23.031Z,19.00
2022-09-09T23:08:58.097Z,20.00
2022-09-09T23:11:31.506Z,19.30
2022-09-09T23:14:02.051Z,18.10
2022-09-09T23:16:40.069Z,19.20
2022-09-09T23:19:15.262Z,20.20
2022-09-09T23:21:45.053Z,19.20
2022-09-09T23:24:16.040Z,19.10
2022-09-09T23:26:45.722Z,18.50
2022-09-09T23:31:46.047Z,19.10
2022-09-09T23:36:43.068Z,18.60
2022-09-09T23:39:13.364Z,19.20
2022-09-09T23:41:41.149Z,18.80
2022-09-09T23:46:36.817Z,18.30
2022-09-09T23:49:04.520Z,18.60
2022-09-09T23:51:32.297Z,18.80
2022-09-09T23:54:04.730Z,18.20
2022-09-09T23:56:42.461Z,18.10
